createdAt,value
2019-04-07T00:01:45.546Z,81.43
2019-04-07T00:04:14.589Z,79.80
2019-04-07T00:06:43.539Z,71.53
2019-04-07T00:09:12.541Z,81.10
2019-04-07T00:11:41.467Z,71.23
2019-04-07T00:14:10.409Z,69.90
2019-04-07T00:16:40.063Z,73.70
2019-04-07T00:19:09.829Z,72.67
2019-04-07T00:21:38.816Z,71.77
2019-04-07T00:24:08.155Z,86.97
2019-04-07T00:26:37.040Z,97.00
2019-04-07T00:29:06.034Z,92.00
2019-04-07T00:31:35.216Z,82.40
2019-04-07T00:34:05.253Z,76.63
2019-04-07T00:36:35.036Z,86.00
2019-04-07T00:39:05.995Z,79.23
2019-04-07T00:41:35.370Z,80.57
2019-04-07T00:44:05.021Z,73.43
2019-04-07T00:46:34.439Z,68.93
2019-04-07T00:49:04.009Z,76.93
2019-04-07T00:51:33.257Z,71.63
2019-04-07T00:54:02.637Z,75.50
2019-04-07T00:56:31.820Z,80.00
2019-04-07T00:59:01.078Z,68.77
2019-04-07T01:01:30.551Z,69.97
2019-04-07T01:03:59.900Z,73.47
2019-04-07T01:06:29.440Z,71.30
2019-04-07T01:08:58.996Z,79.87
2019-04-07T01:11:28.096Z,81.53
2019-04-07T01:13:57.023Z,70.80
2019-04-07T01:16:26.259Z,69.17
2019-04-07T01:18:55.308Z,70.20
2019-04-07T01:21:24.916Z,72.60
2019-04-07T01:23:54.399Z,80.20
2019-04-07T01:26:23.883Z,76.67
2019-04-07T01:28:54.516Z,75.00
2019-04-07T01:31:24.190Z,78.33
2019-04-07T01:33:53.270Z,67.53
2019-04-07T01:36:22.636Z,64.47
2019-04-07T01:38:52.140Z,69.73
2019-04-07T01:41:38.606Z,63.30
2019-04-07T01:44:29.745Z,66.73
2019-04-07T01:47:27.681Z,63.60
2019-04-07T01:50:22.144Z,63.63
2019-04-07T01:52:59.691Z,60.17
2019-04-07T01:55:57.505Z,71.53
2019-04-07T01:58:42.842Z,73.50
2019-04-07T02:01:27.435Z,61.10
2019-04-07T02:04:18.414Z,75.57
2019-04-07T02:07:24.674Z,62.10
2019-04-07T02:10:20.918Z,66.07
2019-04-07T02:13:16.531Z,69.43
2019-04-07T02:15:56.922Z,59.07
2019-04-07T02:18:40.266Z,76.47
2019-04-07T02:21:37.606Z,67.03
2019-04-07T02:24:24.542Z,69.17
2019-04-07T02:27:15.359Z,72.10
2019-04-07T02:30:03.823Z,71.17
2019-04-07T02:32:44.601Z,66.07
2019-04-07T02:35:39.177Z,71.93
2019-04-07T02:38:30.020Z,74.10
2019-04-07T02:41:17.819Z,64.47
2019-04-07T02:44:25.349Z,64.67
2019-04-07T02:47:08.614Z,59.80
2019-04-07T02:49:50.172Z,71.27
2019-04-07T02:52:42.902Z,69.27
2019-04-07T02:55:34.119Z,58.67
2019-04-07T02:58:20.951Z,65.77
2019-04-07T03:01:02.696Z,61.70
2019-04-07T03:03:57.617Z,61.23
2019-04-07T03:06:49.767Z,64.80
2019-04-07T03:09:49.224Z,65.23
2019-04-07T03:12:37.548Z,70.57
2019-04-07T03:15:13.080Z,60.10
2019-04-07T03:17:55.004Z,66.43
2019-04-07T03:20:32.573Z,62.63
2019-04-07T03:23:09.956Z,76.03
2019-04-07T03:26:00.970Z,58.30
2019-04-07T03:28:47.976Z,56.83
2019-04-07T03:31:38.965Z,60.23
2019-04-07T03:34:20.394Z,56.03
2019-04-07T03:37:22.707Z,68.53
2019-04-07T03:39:39.266Z,53.23
2019-04-07T03:42:15.700Z,52.07
2019-04-07T03:45:02.591Z,57.20
2019-04-07T03:47:44.464Z,61.43
2019-04-07T03:50:33.364Z,56.37
2019-04-07T03:53:20.123Z,58.30
2019-04-07T03:55:55.352Z,54.63
2019-04-07T03:58:39.679Z,57.63
2019-04-07T04:01:35.527Z,61.90
2019-04-07T04:04:24.160Z,64.00
2019-04-07T04:07:33.956Z,57.90
2019-04-07T04:10:08.552Z,51.03
2019-04-07T04:12:55.270Z,67.57
2019-04-07T04:15:38.046Z,58.80
2019-04-07T04:18:07.130Z,65.50
2019-04-07T04:20:37.110Z,86.03
2019-04-07T04:23:06.136Z,54.20
2019-04-07T04:25:34.969Z,68.60
2019-04-07T04:28:04.945Z,54.17
2019-04-07T04:30:34.230Z,65.93
2019-04-07T04:33:03.988Z,61.23
2019-04-07T04:35:34.008Z,60.73
2019-04-07T04:38:03.779Z,63.87
2019-04-07T04:40:32.780Z,54.43
2019-04-07T04:43:02.698Z,58.57
2019-04-07T04:45:31.774Z,59.80
2019-04-07T04:48:00.666Z,55.03
2019-04-07T04:50:29.935Z,57.93
2019-04-07T04:52:59.896Z,59.90
2019-04-07T04:55:30.476Z,60.00
2019-04-07T04:57:59.372Z,62.67
2019-04-07T05:00:28.599Z,54.10
2019-04-07T05:02:58.147Z,52.87
2019-04-07T05:05:28.001Z,51.03
2019-04-07T05:08:02.903Z,50.83
2019-04-07T05:10:27.643Z,57.97
2019-04-07T05:12:57.187Z,61.10
2019-04-07T05:15:26.075Z,49.10
2019-04-07T05:17:55.004Z,46.17
2019-04-07T05:20:24.031Z,54.40
2019-04-07T05:22:53.462Z,55.67
2019-04-07T05:25:22.850Z,50.27
2019-04-07T05:27:51.947Z,60.43
2019-04-07T05:30:20.901Z,51.10
2019-04-07T05:32:49.809Z,56.63
2019-04-07T05:35:18.795Z,54.33
2019-04-07T05:37:59.085Z,54.43
2019-04-07T05:40:19.154Z,52.63
2019-04-07T05:42:48.335Z,41.30
2019-04-07T05:45:17.384Z,50.23
2019-04-07T05:47:48.659Z,55.67
2019-04-07T05:50:16.903Z,52.43
2019-04-07T05:52:46.537Z,44.10
2019-04-07T05:55:15.475Z,47.40
2019-04-07T05:57:44.311Z,43.73
2019-04-07T06:00:16.325Z,52.23
2019-04-07T06:02:45.584Z,57.73
2019-04-07T06:05:16.306Z,44.77
2019-04-07T06:07:45.924Z,49.70
2019-04-07T06:10:15.452Z,41.63
2019-04-07T06:12:47.162Z,54.00
2019-04-07T06:15:19.253Z,52.90
2019-04-07T06:17:46.240Z,48.17
2019-04-07T06:20:17.028Z,57.23
2019-04-07T06:22:46.993Z,56.50
2019-04-07T06:25:17.039Z,47.07
2019-04-07T06:27:46.650Z,49.30
2019-04-07T06:30:17.528Z,56.67
2019-04-07T06:32:47.224Z,51.70
2019-04-07T06:35:16.912Z,48.67
2019-04-07T06:37:46.506Z,54.63
2019-04-07T06:40:20.372Z,47.50
2019-04-07T06:42:46.526Z,58.33
2019-04-07T06:45:21.786Z,56.20
2019-04-07T06:47:53.435Z,54.67
2019-04-07T06:50:49.321Z,57.90
2019-04-07T06:53:38.163Z,51.77
2019-04-07T06:56:13.041Z,55.37
2019-04-07T06:59:00.362Z,51.35
2019-04-07T07:01:41.080Z,59.53
2019-04-07T07:04:28.212Z,50.67
2019-04-07T07:07:25.091Z,56.53
2019-04-07T07:10:27.438Z,59.00
2019-04-07T07:13:28.633Z,50.77
2019-04-07T07:16:07.903Z,57.27
2019-04-07T07:19:05.197Z,52.23
2019-04-07T07:22:02.413Z,52.63
2019-04-07T07:24:31.395Z,58.53
2019-04-07T07:27:00.455Z,54.70
2019-04-07T07:29:29.980Z,46.47
2019-04-07T07:32:03.455Z,55.27
2019-04-07T07:34:29.606Z,64.10
2019-04-07T07:36:58.999Z,58.70
2019-04-07T07:39:29.602Z,54.80
2019-04-07T07:41:59.359Z,54.57
2019-04-07T07:44:28.919Z,53.73
2019-04-07T07:46:58.179Z,48.37
2019-04-07T07:49:28.843Z,51.60
2019-04-07T07:51:58.154Z,58.40
2019-04-07T07:54:28.230Z,51.30
2019-04-07T07:56:58.097Z,47.00
2019-04-07T07:59:30.572Z,49.70
2019-04-07T08:01:57.880Z,51.43
2019-04-07T08:04:27.659Z,63.10
2019-04-07T08:06:56.925Z,46.73
2019-04-07T08:09:26.961Z,48.90
2019-04-07T08:11:56.407Z,45.77
2019-04-07T08:14:25.994Z,48.40
2019-04-07T08:16:55.447Z,47.80
2019-04-07T08:19:29.681Z,39.73
2019-04-07T08:21:58.441Z,42.87
2019-04-07T08:24:28.130Z,40.87
2019-04-07T08:26:58.362Z,35.73
2019-04-07T08:29:28.018Z,37.77
2019-04-07T08:31:57.668Z,37.93
2019-04-07T08:34:26.584Z,37.00
2019-04-07T08:36:55.594Z,36.23
2019-04-07T08:39:26.956Z,35.93
2019-04-07T08:41:55.096Z,44.30
2019-04-07T08:44:26.943Z,40.50
2019-04-07T08:46:57.777Z,43.10
2019-04-07T08:49:25.635Z,43.37
2019-04-07T08:51:55.037Z,38.40
2019-04-07T08:54:24.014Z,38.80
2019-04-07T08:56:56.296Z,42.73
2019-04-07T08:59:23.551Z,42.20
2019-04-07T09:01:54.187Z,37.37
2019-04-07T09:04:22.903Z,34.67
2019-04-07T09:06:51.935Z,39.53
2019-04-07T09:09:31.355Z,30.27
2019-04-07T09:11:54.137Z,32.20
2019-04-07T09:14:22.321Z,33.30
2019-04-07T09:17:05.475Z,38.15
2019-04-07T09:20:10.554Z,29.27
2019-04-07T09:22:56.083Z,32.80
2019-04-07T09:25:37.873Z,33.90
2019-04-07T09:28:28.483Z,29.87
2019-04-07T09:31:06.240Z,30.30
2019-04-07T09:33:58.114Z,33.67
2019-04-07T09:36:33.575Z,29.10
2019-04-07T09:39:20.250Z,30.87
2019-04-07T09:41:57.237Z,29.00
2019-04-07T09:44:48.398Z,34.43
2019-04-07T09:47:36.932Z,37.00
2019-04-07T09:50:28.820Z,29.27
2019-04-07T09:53:19.723Z,42.30
2019-04-07T09:56:16.221Z,30.17
2019-04-07T09:59:04.951Z,35.03
2019-04-07T10:01:51.816Z,29.57
2019-04-07T10:04:49.707Z,33.33
2019-04-07T10:07:40.318Z,23.03
2019-04-07T10:10:21.390Z,21.83
2019-04-07T10:13:20.406Z,24.40
2019-04-07T10:16:08.855Z,25.70
2019-04-07T10:19:03.718Z,22.87
2019-04-07T10:22:04.814Z,19.20
2019-04-07T10:24:52.092Z,27.30
2019-04-07T10:27:46.458Z,21.50
2019-04-07T10:30:28.185Z,17.13
2019-04-07T10:33:15.697Z,26.87
2019-04-07T10:35:59.314Z,18.40
2019-04-07T10:38:50.834Z,23.03
2019-04-07T10:41:42.722Z,19.40
2019-04-07T10:44:32.364Z,11.60
2019-04-07T10:47:26.169Z,10.83
2019-04-07T10:50:14.303Z,10.03
2019-04-07T10:52:52.512Z,12.27
2019-04-07T10:55:40.565Z,13.37
2019-04-07T10:58:26.546Z,14.97
2019-04-07T11:01:15.514Z,8.40
2019-04-07T11:04:07.259Z,11.57
2019-04-07T11:07:01.974Z,11.53
2019-04-07T11:09:50.499Z,16.33
2019-04-07T11:12:37.879Z,9.43
2019-04-07T11:15:27.422Z,8.30
2019-04-07T11:18:12.303Z,13.00
2019-04-07T11:20:49.241Z,10.10
2019-04-07T11:23:34.850Z,8.57
2019-04-07T11:26:12.404Z,10.83
2019-04-07T11:28:50.535Z,8.63
2019-04-07T11:31:41.727Z,10.03
2019-04-07T11:34:17.977Z,9.70
2019-04-07T11:37:12.839Z,7.80
2019-04-07T11:39:54.593Z,10.60
2019-04-07T11:42:43.028Z,10.47
2019-04-07T11:45:19.416Z,7.53
2019-04-07T11:48:01.632Z,6.17
2019-04-07T11:50:36.976Z,6.57
2019-04-07T11:53:31.860Z,6.80
2019-04-07T11:56:20.557Z,10.00
2019-04-07T11:59:17.838Z,6.07
2019-04-07T12:01:54.192Z,5.23
2019-04-07T12:04:35.678Z,5.63
2019-04-07T12:07:19.139Z,8.10
2019-04-07T12:10:05.776Z,8.17
2019-04-07T12:12:45.173Z,12.90
2019-04-07T12:15:33.466Z,8.13
2019-04-07T12:18:19.266Z,6.33
2019-04-07T12:21:20.046Z,6.33
2019-04-07T12:24:06.046Z,5.77
2019-04-07T12:26:43.618Z,8.63
2019-04-07T12:29:23.260Z,6.73
2019-04-07T12:32:09.645Z,6.57
2019-04-07T12:34:49.768Z,6.70
2019-04-07T12:37:32.957Z,7.63
2019-04-07T12:40:22.252Z,7.97
2019-04-07T12:43:01.442Z,7.00
2019-04-07T12:45:50.935Z,7.53
2019-04-07T12:48:29.339Z,6.43
2019-04-07T12:51:22.409Z,8.90
2019-04-07T12:54:00.181Z,4.97
2019-04-07T12:56:47.790Z,7.70
2019-04-07T12:59:41.845Z,5.13
2019-04-07T13:02:21.667Z,5.60
2019-04-07T13:05:09.064Z,6.00
2019-04-07T13:07:52.144Z,5.37
2019-04-07T13:10:39.357Z,4.63
2019-04-07T13:13:29.538Z,5.47
2019-04-07T13:16:28.354Z,5.40
2019-04-07T13:19:09.313Z,10.37
2019-04-07T13:21:57.357Z,7.43
2019-04-07T13:24:45.474Z,5.30
2019-04-07T13:27:21.132Z,5.63
2019-04-07T13:29:59.778Z,4.30
2019-04-07T13:32:50.397Z,4.40
2019-04-07T13:35:25.398Z,9.60
2019-04-07T13:38:29.303Z,6.53
2019-04-07T13:41:23.484Z,9.87
2019-04-07T13:44:10.748Z,6.57
2019-04-07T13:46:59.064Z,6.40
2019-04-07T13:49:38.227Z,6.60
2019-04-07T13:52:29.028Z,5.77
2019-04-07T13:55:20.918Z,5.80
2019-04-07T13:58:12.063Z,9.90
2019-04-07T14:00:48.361Z,6.43
2019-04-07T14:03:37.033Z,5.33
2019-04-07T14:06:24.804Z,7.90
2019-04-07T14:09:12.741Z,4.53
2019-04-07T14:12:08.284Z,5.70
2019-04-07T14:14:49.821Z,6.10
2019-04-07T14:17:33.415Z,7.07
2019-04-07T14:20:15.019Z,5.37
2019-04-07T14:23:02.214Z,8.10
2019-04-07T14:25:45.341Z,11.70
2019-04-07T14:28:22.423Z,8.53
2019-04-07T14:31:13.655Z,6.03
2019-04-07T14:34:20.636Z,5.43
2019-04-07T14:36:55.165Z,8.83
2019-04-07T14:39:39.010Z,8.67
2019-04-07T14:42:29.426Z,6.07
2019-04-07T14:45:18.097Z,11.27
2019-04-07T14:48:16.177Z,9.93
2019-04-07T14:50:59.317Z,6.60
2019-04-07T14:53:48.451Z,5.43
2019-04-07T14:56:37.576Z,13.40
2019-04-07T14:59:29.650Z,13.43
2019-04-07T15:02:00.831Z,8.73
2019-04-07T15:04:48.848Z,10.57
2019-04-07T15:07:36.648Z,8.63
2019-04-07T15:10:15.952Z,11.63
2019-04-07T15:12:47.149Z,8.03
2019-04-07T15:15:17.079Z,9.40
2019-04-07T15:17:47.787Z,8.50
2019-04-07T15:20:17.538Z,12.30
2019-04-07T15:22:48.480Z,15.47
2019-04-07T15:25:18.392Z,8.33
2019-04-07T15:27:47.749Z,13.27
2019-04-07T15:30:17.036Z,10.33
2019-04-07T15:32:46.876Z,5.57
2019-04-07T15:35:29.975Z,7.87
2019-04-07T15:37:59.196Z,16.47
2019-04-07T15:40:28.251Z,13.17
2019-04-07T15:43:01.472Z,8.70
2019-04-07T15:45:28.663Z,7.77
2019-04-07T15:48:00.283Z,12.73
2019-04-07T15:50:30.164Z,6.37
2019-04-07T15:52:59.581Z,7.87
2019-04-07T15:55:43.145Z,12.70
2019-04-07T15:57:59.732Z,8.43
2019-04-07T16:00:32.329Z,12.30
2019-04-07T16:03:00.071Z,9.60
2019-04-07T16:05:30.337Z,7.63
2019-04-07T16:08:01.109Z,10.40
2019-04-07T16:10:30.252Z,10.50
2019-04-07T16:12:59.603Z,13.03
2019-04-07T16:15:29.652Z,7.73
2019-04-07T16:17:58.840Z,8.33
2019-04-07T16:20:32.302Z,11.80
2019-04-07T16:22:58.345Z,11.22
2019-04-07T16:25:28.191Z,21.20
2019-04-07T16:27:58.713Z,12.00
2019-04-07T16:30:27.763Z,12.13
2019-04-07T16:32:59.671Z,7.20
2019-04-07T16:35:27.822Z,14.50
2019-04-07T16:37:58.373Z,17.73
2019-04-07T16:40:28.055Z,11.30
2019-04-07T16:43:09.166Z,9.43
2019-04-07T16:45:29.300Z,9.17
2019-04-07T16:47:58.892Z,14.20
2019-04-07T16:50:29.449Z,10.47
2019-04-07T16:53:02.646Z,7.20
2019-04-07T16:55:37.898Z,17.67
2019-04-07T16:58:09.899Z,13.17
2019-04-07T17:00:39.848Z,11.67
2019-04-07T17:03:09.889Z,15.27
2019-04-07T17:05:40.951Z,14.73
2019-04-07T17:08:10.531Z,11.60
2019-04-07T17:10:46.483Z,14.90
2019-04-07T17:13:24.718Z,13.53
2019-04-07T17:15:50.781Z,13.40
2019-04-07T17:18:36.798Z,14.60
2019-04-07T17:21:11.719Z,13.90
2019-04-07T17:23:40.922Z,15.90
2019-04-07T17:26:10.224Z,14.93
2019-04-07T17:28:42.073Z,13.30
2019-04-07T17:31:14.281Z,13.77
2019-04-07T17:33:43.779Z,20.03
2019-04-07T17:36:17.647Z,18.00
2019-04-07T17:39:03.952Z,19.47
2019-04-07T17:41:32.951Z,14.03
2019-04-07T17:44:23.137Z,16.60
2019-04-07T17:47:09.666Z,18.00
2019-04-07T17:50:04.235Z,18.67
2019-04-07T17:52:44.079Z,15.90
2019-04-07T17:55:33.207Z,15.50
2019-04-07T17:58:09.181Z,18.17
2019-04-07T18:01:20.576Z,32.37
2019-04-07T18:04:16.205Z,15.70
2019-04-07T18:07:06.083Z,19.03
2019-04-07T18:09:57.399Z,17.93
2019-04-07T18:12:40.166Z,14.87
2019-04-07T18:15:37.370Z,22.13
2019-04-07T18:18:28.782Z,21.53
2019-04-07T18:21:30.354Z,15.90
2019-04-07T18:24:18.014Z,18.67
2019-04-07T18:27:11.007Z,23.83
2019-04-07T18:29:52.785Z,21.87
2019-04-07T18:32:46.990Z,21.57
2019-04-07T18:35:34.764Z,28.03
2019-04-07T18:38:36.301Z,19.60
2019-04-07T18:41:23.971Z,21.90
2019-04-07T18:44:07.732Z,21.43
2019-04-07T18:46:55.025Z,19.30
2019-04-07T18:49:39.445Z,23.43
2019-04-07T18:52:26.783Z,18.80
2019-04-07T18:55:30.090Z,25.00
2019-04-07T18:58:25.660Z,18.33
2019-04-07T19:01:14.058Z,28.17
2019-04-07T19:03:58.892Z,21.73
2019-04-07T19:06:41.161Z,19.03
2019-04-07T19:09:17.818Z,22.77
2019-04-07T19:12:20.752Z,24.03
2019-04-07T19:15:09.224Z,24.57
2019-04-07T19:18:01.756Z,23.47
2019-04-07T19:20:55.929Z,27.57
2019-04-07T19:23:44.031Z,22.50
2019-04-07T19:26:33.557Z,19.50
2019-04-07T19:29:12.052Z,24.87
2019-04-07T19:31:59.708Z,27.90
2019-04-07T19:34:48.241Z,28.47
2019-04-07T19:37:35.135Z,34.10
2019-04-07T19:40:16.702Z,21.83
2019-04-07T19:42:52.128Z,21.20
2019-04-07T19:45:39.275Z,30.67
2019-04-07T19:48:17.612Z,31.03
2019-04-07T19:51:05.356Z,30.80
2019-04-07T19:54:16.033Z,33.90
2019-04-07T19:57:07.323Z,24.10
2019-04-07T19:59:45.230Z,21.40
2019-04-07T20:02:32.624Z,29.50
2019-04-07T20:05:19.627Z,26.23
2019-04-07T20:08:06.544Z,23.40
2019-04-07T20:10:45.084Z,28.90
2019-04-07T20:13:29.748Z,32.20
2019-04-07T20:16:12.840Z,25.10
2019-04-07T20:18:59.387Z,28.93
2019-04-07T20:21:55.367Z,23.10
2019-04-07T20:24:56.589Z,27.40
2019-04-07T20:27:33.924Z,33.33
2019-04-07T20:30:23.837Z,28.20
2019-04-07T20:33:20.754Z,23.23
2019-04-07T20:36:19.388Z,26.90
2019-04-07T20:38:57.924Z,29.47
2019-04-07T20:41:34.450Z,22.00
2019-04-07T20:44:25.840Z,30.83
2019-04-07T20:47:12.205Z,27.77
2019-04-07T20:50:02.952Z,22.93
2019-04-07T20:52:53.620Z,26.27
2019-04-07T20:55:41.352Z,25.20
2019-04-07T20:58:42.158Z,27.07
2019-04-07T21:01:20.843Z,24.27
2019-04-07T21:04:08.876Z,31.00
2019-04-07T21:07:02.166Z,27.87
2019-04-07T21:09:56.642Z,24.37
2019-04-07T21:12:45.426Z,26.37
2019-04-07T21:15:27.516Z,27.73
2019-04-07T21:18:17.774Z,26.70
2019-04-07T21:20:56.717Z,28.33
2019-04-07T21:23:37.348Z,33.00
2019-04-07T21:26:17.576Z,37.03
2019-04-07T21:29:07.401Z,32.37
2019-04-07T21:32:08.827Z,54.80
2019-04-07T21:35:01.418Z,31.33
2019-04-07T21:37:40.716Z,31.60
2019-04-07T21:40:28.660Z,34.43
2019-04-07T21:43:05.810Z,30.90
2019-04-07T21:49:00.690Z,39.60
2019-04-07T21:51:53.466Z,31.87
2019-04-07T21:54:32.797Z,34.20
2019-04-07T21:57:09.924Z,28.20
2019-04-07T21:59:49.949Z,28.53
2019-04-07T22:02:29.262Z,29.33
2019-04-07T22:05:07.242Z,38.67
2019-04-07T22:07:41.923Z,26.40
2019-04-07T22:10:12.372Z,27.83
2019-04-07T22:12:42.231Z,33.07
2019-04-07T22:15:13.917Z,26.93
2019-04-07T22:17:42.190Z,27.77
2019-04-07T22:20:12.614Z,30.07
2019-04-07T22:22:43.004Z,31.37
2019-04-07T22:25:13.035Z,28.27
2019-04-07T22:27:43.019Z,26.70
2019-04-07T22:30:13.220Z,35.50
2019-04-07T22:32:42.749Z,28.57
2019-04-07T22:35:12.719Z,36.43
2019-04-07T22:37:41.843Z,28.73
2019-04-07T22:40:15.178Z,28.77
2019-04-07T22:42:45.863Z,27.50
2019-04-07T22:45:15.034Z,33.80
2019-04-07T22:47:44.532Z,27.93
2019-04-07T22:50:14.927Z,32.33
2019-04-07T22:52:47.437Z,36.93
2019-04-07T22:55:14.906Z,40.33
2019-04-07T22:57:44.152Z,33.80
2019-04-07T23:00:21.187Z,36.33
2019-04-07T23:02:50.255Z,34.27
2019-04-07T23:05:19.225Z,28.20
2019-04-07T23:07:48.194Z,31.30
2019-04-07T23:10:17.952Z,29.70
2019-04-07T23:12:47.822Z,29.03
2019-04-07T23:15:17.523Z,27.57
2019-04-07T23:17:47.221Z,28.53
2019-04-07T23:20:17.180Z,25.57
2019-04-07T23:22:46.667Z,33.03
2019-04-07T23:25:15.820Z,32.47
2019-04-07T23:27:45.582Z,28.40
2019-04-07T23:30:17.302Z,30.10
2019-04-07T23:32:46.323Z,29.70
2019-04-07T23:35:15.279Z,33.60
2019-04-07T23:37:44.130Z,29.10
2019-04-07T23:40:14.671Z,27.07
2019-04-07T23:42:44.605Z,31.60
2019-04-07T23:45:14.425Z,28.73
2019-04-07T23:47:43.349Z,30.03
2019-04-07T23:50:12.930Z,28.70
2019-04-07T23:52:41.786Z,32.20
2019-04-07T23:55:10.762Z,37.57
2019-04-07T23:57:40.223Z,31.40
